Decoded Metar for YFRT (FORREST in _UNIDENTIFIED) (IATA:N/A) | Meteo·Mobile Aviation Weather
aviador You're here:

YFRT Decoded Metar

FORREST in _UNIDENTIFIED
Report Time2018-08-21 05:00:00
UTC Time2018-08-21 05:40:53
Flight Rules unknown UNKNOWN
Wind330° at 07 kt
W.Decomp.*RWY 36: 5.9 kt HW 3.8 kt LCW
RWY 27: 3.8 kt HW 5.9 kt RCW
W.Rank330° ranks 32
Current wind is below 330° avg. (11.3)
VisibilityN/A
Phenomena:N/A
Clouds:N/A
Expected CloudBase > 13,200 ft AGL from Temp-Dew spread
CeilingNone
Temp26°C (ISA +12)
Dew Point-7°C (11% RH)
AAT20.7°C
QNH1011 hPa
Density Alt2,024 ft
Elevation512 ft
Report Wrong Elevation
Raw Report
METAR YFRT 210500Z AUTO 33007KT 290V010 //// // ////// 26/M07 Q1011=

Extra information for YFRT:More info

Metar Taf Metar & Taf Last 4 Metars F.Rules Stats Wind Profile Meteogram Temp Stats Airport Information Weather charts Add Link Nearby VenuesMetar ALERT Operation Metar Decoded Social comments